Data for 01/17/2006

Time Sea-Level Adjusted Pressure Absolute Pressure Temperature Relative Humidity Dew Point   
(mb) (inHg) (mb) (inHg) (C) (F) (%) (C) (F)
00:05 1019 30.09 848 25.04 -3.9 24.9 63 -10 13.9
00:10 1019 30.09 848 25.04 -3.9 25 62 -10.3 13.5
00:15 1019 30.09 848 25.04 -4.1 24.7 60 -10.6 12.9
00:20 1019 30.09 848 25.04 -4.3 24.3 61 -10.8 12.6
00:25 1019 30.09 848 25.04 -4.2 24.4 62 -10.5 13.1
00:30 1019 30.09 848 25.04 -4 24.7 62 -10.2 13.7
00:35 1019 30.09 848 25.04 -3.9 24.9 62 -10.2 13.7
00:40 1019 30.09 848 25.04 -3.6 25.5 63 -9.6 14.7
00:45 1019 30.09 848 25.04 -3.4 25.8 68 -8.6 16.5
00:50 1019 30.09 848 25.04 -3.5 25.8 73 -7.6 18.4
00:55 1019 30.09 848 25.04 -3.7 25.4 79 -6.8 19.7
01:00 1019 30.09 848 25.04 -3.9 24.9 82 -6.6 20.2
01:05 1019 30.09 848 25.04 -4 24.8 85 -6.2 20.8
01:10 1019 30.09 848 25.04 -4 24.8 87 -5.9 21.3
01:15 1019 30.09 848 25.04 -4 24.7 88 -5.8 21.6
01:20 1019 30.09 848 25.04 -4.1 24.6 88 -5.7 21.7
01:25 1019 30.09 848 25.04 -4.2 24.4 90 -5.7 21.8
01:30 1019 30.09 848 25.04 -4.4 24.1 91 -5.6 21.9
01:35 1018 30.06 848 25.04 -4.5 23.8 92 -5.6 21.9
01:40 1018 30.06 848 25.04 -4.5 23.8 93 -5.5 22
01:45 1018 30.06 847 25.01 -4.6 23.7 93 -5.5 22.1
01:50 1018 30.06 847 25.01 -4.6 23.8 93 -5.6 22
01:55 1018 30.06 847 25.01 -4.6 23.8 93 -5.5 22
02:00 1018 30.06 847 25.01 -4.6 23.7 92 -5.7 21.8
02:05 1018 30.06 847 25.01 -4.8 23.4 93 -5.7 21.8
02:10 1018 30.06 847 25.01 -4.7 23.5 93 -5.6 21.8
02:15 1018 30.06 847 25.01 -4.7 23.6 93 -5.7 21.8
02:20 1018 30.06 847 25.01 -5 23 94 -5.9 21.4
02:25 1018 30.06 847 25.01 -5.1 22.8 94 -5.9 21.4
02:30 1018 30.06 847 25.01 -5 22.9 94 -5.9 21.4
02:35 1018 30.06 847 25.01 -5.1 22.9 94 -5.9 21.4
02:40 1018 30.06 847 25.01 -4.9 23.1 93 -5.9 21.4
02:45 1018 30.06 847 25.01 -5 23 93 -5.9 21.3
02:50 1018 30.06 847 25.01 -5 23.1 93 -6 21.2
02:55 1018 30.06 847 25.01 -5 23 93 -6 21.3
03:00 1018 30.06 847 25.01 -5 23 93 -6 21.2
03:05 1018 30.06 847 25.01 -5 23 93 -6 21.2
03:10 1018 30.06 847 25.01 -5 23 93 -5.9 21.3
03:15 1018 30.06 847 25.01 -5 23.1 93 -5.9 21.3
03:20 1018 30.06 847 25.01 -4.9 23.2 93 -5.9 21.4
03:25 1018 30.06 847 25.01 -4.8 23.3 92 -5.9 21.4
03:30 1018 30.06 847 25.01 -4.7 23.5 92 -5.8 21.6
03:35 1018 30.06 847 25.01 -4.7 23.6 92 -5.8 21.5
03:40 1018 30.06 847 25.01 -4.6 23.7 92 -5.8 21.6
03:45 1018 30.06 847 25.01 -4.6 23.8 91 -5.8 21.6
03:50 1018 30.06 847 25.01 -4.6 23.7 91 -5.8 21.5
03:55 1017 30.03 847 25.01 -4.7 23.6 92 -5.8 21.5
04:00 1017 30.03 847 25.01 -4.7 23.6 92 -5.8 21.5
04:05 1017 30.03 846 24.98 -4.6 23.7 92 -5.7 21.7
04:10 1017 30.03 846 24.98 -4.4 24 91 -5.7 21.8
04:15 1017 30.03 846 24.98 -4.4 24.2 91 -5.6 21.9
04:20 1017 30.03 846 24.98 -4.3 24.2 90 -5.7 21.8
04:25 1017 30.03 846 24.98 -4.2 24.5 90 -5.6 22
04:30 1017 30.03 846 24.98 -4.2 24.5 89 -5.7 21.8
04:35 1017 30.03 846 24.98 -4.1 24.6 89 -5.7 21.8
04:40 1017 30.03 846 24.98 -4 24.7 88 -5.8 21.6
04:45 1017 30.03 846 24.98 -4 24.8 87 -5.8 21.5
04:50 1017 30.03 846 24.98 -3.9 25.1 86 -5.8 21.6
04:55 1017 30.03 846 24.98 -3.8 25.2 86 -5.8 21.5
05:00 1016 30 846 24.98 -3.7 25.3 85 -5.8 21.5
05:05 1016 30 846 24.98 -3.7 25.3 85 -5.8 21.5
05:10 1016 30 846 24.98 -3.7 25.4 85 -5.9 21.5
05:15 1016 30 845 24.95 -3.6 25.6 84 -5.9 21.3
05:20 1016 30 845 24.95 -3.5 25.8 83 -5.9 21.4
05:25 1016 30 845 24.95 -3.3 26 82 -6 21.3
05:30 1016 30 845 24.95 -3.2 26.2 82 -5.9 21.3
05:35 1016 30 845 24.95 -3.2 26.3 81 -5.9 21.4
05:40 1016 30 845 24.95 -3.3 26.1 82 -5.9 21.3
05:45 1016 30 845 24.95 -3.2 26.3 82 -5.9 21.4
05:50 1016 30 845 24.95 -3.1 26.4 81 -5.9 21.4
05:55 1016 30 845 24.95 -3 26.5 81 -5.9 21.5
06:00 1016 30 845 24.95 -2.9 26.8 80 -5.9 21.4
06:05 1016 30 845 24.95 -2.7 27.1 79 -5.8 21.5
06:10 1016 30 845 24.95 -2.7 27.2 78 -5.9 21.3
06:15 1016 30 845 24.95 -2.5 27.5 77 -6 21.2
06:20 1016 30 845 24.95 -2.4 27.7 77 -6 21.3
06:25 1016 30 845 24.95 -2.3 27.8 76 -5.9 21.3
06:30 1016 30 845 24.95 -2.3 27.9 78 -5.6 22
06:35 1016 30 845 24.95 -2.3 27.9 77 -5.8 21.6
06:40 1016 30 845 24.95 -2.3 27.9 75 -6.1 21
06:45 1016 30 845 24.95 -2.2 28 76 -6 21.3
06:50 1016 30 845 24.95 -2.3 27.8 76 -6 21.1
06:55 1016 30 845 24.95 -2.2 28.1 74 -6.3 20.7
07:00 1016 30 845 24.95 -2 28.4 73 -6.2 20.9
07:05 1016 30 845 24.95 -1.9 28.5 75 -5.9 21.4
07:10 1015 29.97 845 24.95 -2 28.4 74 -6 21.2
07:15 1015 29.97 845 24.95 -2 28.4 74 -6 21.2
07:20 1015 29.97 845 24.95 -1.9 28.5 74 -6.1 21.1
07:25 1015 29.97 845 24.95 -2 28.5 77 -5.6 22
07:30 1015 29.97 845 24.95 -2.1 28.2 78 -5.5 22.1
07:35 1015 29.97 845 24.95 -2.3 27.9 79 -5.4 22.3
07:40 1015 29.97 844 24.92 -2.4 27.7 80 -5.4 22.2
07:45 1015 29.97 844 24.92 -2.4 27.6 80 -5.4 22.4
07:50 1015 29.97 844 24.92 -2.4 27.6 81 -5.3 22.4
07:55 1015 29.97 844 24.92 -2.3 27.8 79 -5.5 22.1
08:00 1015 29.97 844 24.92 -2.1 28.2 78 -5.5 22.1
08:05 1015 29.97 844 24.92 -2 28.4 76 -5.6 21.9
08:10 1015 29.97 844 24.92 -1.9 28.7 75 -5.6 21.8
08:15 1015 29.97 844 24.92 -1.6 29.1 74 -5.7 21.7
08:20 1015 29.97 844 24.92 -1.5 29.2 74 -5.5 22
08:25 1015 29.97 844 24.92 -1.6 29.2 74 -5.6 22
08:30 1015 29.97 844 24.92 -1.6 29.1 76 -5.4 22.3
08:35 1015 29.97 844 24.92 -1.6 29 75 -5.5 22
08:40 1015 29.97 844 24.92 -1.5 29.3 76 -5.2 22.7
08:45 1015 29.97 844 24.92 -1.2 29.8 73 -5.4 22.3
08:50 1015 29.97 844 24.92 -1 30.3 72 -5.3 22.5
08:55 1015 29.97 844 24.92 -0.6 30.8 73 -4.8 23.3
09:00 1015 29.97 844 24.92 -0.8 30.6 73 -5.1 22.8
09:05 1015 29.97 844 24.92 -0.6 31 72 -5 23
09:10 1015 29.97 844 24.92 -0.3 31.4 70 -5.1 22.8
09:15 1015 29.97 844 24.92 0 32.1 70 -4.9 23.2
09:20 1015 29.97 844 24.92 0.3 32.5 68 -4.9 23.1
09:25 1015 29.97 844 24.92 0.5 32.8 68 -4.8 23.4
09:30 1015 29.97 844 24.92 0.6 33.1 67 -4.7 23.5
09:35 1015 29.97 844 24.92 0.8 33.5 66 -4.7 23.5
09:40 1015 29.97 844 24.92 1.2 34.2 64 -4.9 23.2
09:45 1015 29.97 844 24.92 1.5 34.6 65 -4.4 24
09:50 1015 29.97 844 24.92 1.5 34.8 65 -4.4 24.2
09:55 1015 29.97 844 24.92 1.8 35.2 64 -4.2 24.4
10:00 1015 29.97 844 24.92 1.7 35.1 65 -4.2 24.4
10:05 1015 29.97 844 24.92 1.6 34.9 64 -4.5 23.9
10:10 1015 29.97 844 24.92 1.5 34.7 65 -4.4 24.2
10:15 1015 29.97 844 24.92 1.4 34.5 67 -4 24.7
10:20 1015 29.97 844 24.92 1.4 34.6 66 -4.3 24.2
10:25 1015 29.97 844 24.92 1.4 34.6 63 -4.8 23.4
10:30 1014 29.94 844 24.92 1 33.8 65 -4.9 23.3
10:35 1014 29.94 843 24.89 0.9 33.7 65 -5 23
10:40 1014 29.94 843 24.89 1 33.8 65 -4.8 23.3
10:45 1014 29.94 843 24.89 1.1 33.9 65 -4.8 23.3
10:50 1014 29.94 843 24.89 1.2 34.2 64 -4.9 23.2
10:55 1014 29.94 843 24.89 1.7 35 63 -4.7 23.5
11:00 1014 29.94 843 24.89 1.7 35.1 62 -4.8 23.4
11:05 1014 29.94 843 24.89 1.7 35.1 62 -4.9 23.3
11:10 1014 29.94 843 24.89 1.6 34.9 62 -4.9 23.1
11:15 1014 29.94 843 24.89 1.8 35.3 61 -4.9 23.1
11:20 1014 29.94 843 24.89 2.2 35.9 59 -4.9 23.1
11:25 1014 29.94 843 24.89 2.6 36.7 57 -5.1 22.8
11:30 1014 29.94 843 24.89 3.6 38.4 55 -4.7 23.6
11:35 1013 29.91 843 24.89 4.1 39.4 54 -4.4 24
11:40 1013 29.91 842 24.86 4.2 39.6 54 -4.2 24.4
11:45 1013 29.91 842 24.86 3.7 38.6 56 -4.4 24.1
11:50 1013 29.91 843 24.89 4.7 40.5 50 -4.7 23.5
11:55 1013 29.91 843 24.89 5.1 41.2 53 -3.8 25.1
12:00 1013 29.91 843 24.89 4.3 39.7 56 -3.6 25.5
12:05 1013 29.91 842 24.86 4.8 40.7 52 -4.1 24.6
12:10 1013 29.91 842 24.86 5.2 41.3 52 -3.9 25
12:15 1013 29.91 842 24.86 5 41 54 -3.6 25.5
12:20 1013 29.91 842 24.86 4.5 40.1 54 -3.9 25
12:25 1013 29.91 842 24.86 4.8 40.6 54 -3.7 25.3
12:30 1013 29.91 842 24.86 4.8 40.6 53 -3.9 24.9
12:35 1013 29.91 842 24.86 5 41.1 54 -3.6 25.5
12:40 1013 29.91 842 24.86 5.3 41.6 52 -3.8 25.2
12:45 1013 29.91 842 24.86 5.4 41.6 53 -3.5 25.7
12:50 1013 29.91 842 24.86 5.3 41.5 53 -3.6 25.5
12:55 1013 29.91 842 24.86 5.2 41.4 53 -3.5 25.6
13:00 1013 29.91 842 24.86 5.2 41.4 54 -3.3 26
13:05 1012 29.88 842 24.86 5.4 41.7 52 -3.6 25.6
13:10 1013 29.91 842 24.86 5.5 41.8 53 -3.4 25.9
13:15 1012 29.88 842 24.86 5 41 56 -3 26.6
13:20 1012 29.88 842 24.86 4.3 39.8 59 -3 26.6
13:25 1012 29.88 842 24.86 4.2 39.6 56 -3.7 25.4
13:30 1012 29.88 841 24.83 4.5 40.1 56 -3.5 25.7
13:35 1012 29.88 841 24.83 4.9 40.9 54 -3.6 25.6
13:40 1012 29.88 841 24.83 5.1 41.1 52 -4 24.7
13:45 1012 29.88 841 24.83 5 41 52 -4.1 24.7
13:50 1012 29.88 841 24.83 5.1 41.2 52 -4 24.9
13:55 1012 29.88 841 24.83 5.7 42.3 48 -4.4 24
14:00 1012 29.88 841 24.83 6.7 44.1 46 -4.2 24.4
14:05 1012 29.88 841 24.83 6.7 44.1 49 -3.3 26
14:10 1012 29.88 841 24.83 6.1 43 50 -3.4 25.8
14:15 1012 29.88 841 24.83 6.1 43.1 49 -3.9 25.1
14:20 1012 29.88 841 24.83 6.1 43.1 50 -3.4 25.8
14:25 1012 29.88 841 24.83 6.9 44.3 48 -3.4 25.8
14:30 1012 29.88 841 24.83 6.8 44.2 48 -3.4 25.9
14:35 1011 29.85 841 24.83 6.8 44.2 50 -2.9 26.8
14:40 1011 29.85 841 24.83 6.6 43.9 49 -3.4 25.9
14:45 1011 29.85 841 24.83 6.5 43.7 48 -3.6 25.5
14:50 1011 29.85 841 24.83 6 42.8 50 -3.7 25.3
14:55 1011 29.85 841 24.83 6.2 43.2 50 -3.5 25.8
15:00 1011 29.85 841 24.83 6.3 43.4 51 -3.2 26.3
15:05 1011 29.85 841 24.83 5.7 42.2 53 -3.2 26.2
15:10 1011 29.85 841 24.83 5.2 41.3 54 -3.4 25.8
15:15 1011 29.85 840 24.81 4.7 40.4 55 -3.6 25.5
15:20 1011 29.85 840 24.81 4.6 40.3 55 -3.7 25.4
15:25 1011 29.85 840 24.81 4.3 39.8 56 -3.6 25.5
15:30 1011 29.85 840 24.81 4.3 39.7 57 -3.5 25.7
15:35 1011 29.85 840 24.81 4.1 39.4 56 -3.8 25.2
15:40 1011 29.85 840 24.81 4.1 39.4 58 -3.5 25.6
15:45 1011 29.85 840 24.81 4 39.2 56 -3.9 25
15:50 1011 29.85 840 24.81 3.7 38.7 58 -3.8 25.1
15:55 1011 29.85 840 24.81 3.6 38.5 58 -3.8 25.1
16:00 1011 29.85 840 24.81 3.5 38.3 59 -3.8 25.2
16:05 1011 29.85 840 24.81 3.5 38.3 58 -3.9 25
16:10 1011 29.85 840 24.81 3.7 38.6 58 -3.7 25.3
16:15 1011 29.85 840 24.81 3.8 38.8 58 -3.7 25.3
16:20 1010 29.83 840 24.81 3.8 38.9 57 -4 24.8
16:25 1010 29.83 840 24.81 3.9 39 56 -4 24.8
16:30 1010 29.83 840 24.81 4 39.2 55 -4.1 24.6
16:35 1010 29.83 840 24.81 3.9 39.1 58 -3.5 25.6
16:40 1010 29.83 840 24.81 3.9 39 56 -4.1 24.7
16:45 1010 29.83 840 24.81 3.7 38.7 57 -3.9 24.9
16:50 1010 29.83 840 24.81 3.7 38.7 58 -3.8 25.1
16:55 1010 29.83 839 24.78 3.7 38.6 55 -4.5 24
17:00 1010 29.83 839 24.78 3.4 38.2 56 -4.6 23.8
17:05 1010 29.83 839 24.78 3.3 38 56 -4.7 23.6
17:10 1010 29.83 839 24.78 3.3 38 56 -4.6 23.7
17:15 1010 29.83 839 24.78 3.6 38.4 57 -4.2 24.5
17:20 1010 29.83 839 24.78 3.6 38.5 55 -4.6 23.8
17:25 1010 29.83 839 24.78 3.6 38.5 55 -4.5 23.9
17:30 1010 29.83 839 24.78 3.6 38.4 57 -4.1 24.7
17:35 1010 29.83 839 24.78 3.3 38 57 -4.4 24.1
17:40 1010 29.83 839 24.78 2.8 37.1 59 -4.4 24.1
17:45 1010 29.83 839 24.78 2.7 36.9 58 -4.7 23.5
17:50 1010 29.83 839 24.78 2.8 37.1 58 -4.5 23.8
17:55 1010 29.83 839 24.78 2.8 37 59 -4.4 24.2
18:00 1010 29.83 839 24.78 2.7 36.8 59 -4.5 23.8
18:05 1010 29.83 839 24.78 2.8 37 58 -4.7 23.6
18:10 1010 29.83 839 24.78 2.6 36.7 59 -4.6 23.7
18:15 1010 29.83 839 24.78 2.4 36.3 60 -4.7 23.6
18:20 1009 29.8 839 24.78 2.2 36 60 -4.8 23.4
18:25 1009 29.8 839 24.78 2.2 36 59 -4.9 23.2
18:30 1009 29.8 838 24.75 2.4 36.3 60 -4.5 23.8
18:35 1009 29.8 838 24.75 2.3 36.2 61 -4.3 24.2
18:40 1009 29.8 838 24.75 2.3 36.1 63 -4.1 24.7
18:45 1009 29.8 838 24.75 2.3 36.2 63 -4.1 24.6
18:50 1009 29.8 838 24.75 2.3 36.1 62 -4.3 24.3
18:55 1009 29.8 838 24.75 2.2 35.9 62 -4.4 24
19:00 1009 29.8 838 24.75 2.2 35.9 63 -4.2 24.4
19:05 1009 29.8 838 24.75 2.1 35.8 65 -3.8 25.2
19:10 1009 29.8 838 24.75 2.1 35.7 66 -3.6 25.4
19:15 1009 29.8 838 24.75 2 35.6 66 -3.6 25.5
19:20 1009 29.8 838 24.75 1.8 35.2 69 -3.3 26
19:25 1009 29.8 838 24.75 1.7 35.1 70 -3.2 26.2
19:30 1008 29.77 838 24.75 1.6 34.9 71 -3 26.6
19:35 1008 29.77 837 24.72 1.6 34.8 71 -3.2 26.2
19:40 1008 29.77 837 24.72 1.7 35 71 -3 26.6
19:45 1008 29.77 837 24.72 1.6 34.9 71 -3.1 26.5
19:50 1008 29.77 837 24.72 1.6 34.9 71 -3.1 26.5
19:55 1008 29.77 837 24.72 1.6 34.9 71 -3.1 26.5
20:00 1008 29.77 837 24.72 1.6 34.9 71 -3.2 26.3
20:05 1008 29.77 837 24.72 1.7 35.1 70 -3.1 26.4
20:10 1008 29.77 837 24.72 1.7 35 70 -3.3 26.1
20:15 1008 29.77 837 24.72 1.8 35.2 69 -3.3 26
20:20 1008 29.77 837 24.72 1.8 35.2 69 -3.3 26.1
20:25 1007 29.74 837 24.72 1.7 35.1 69 -3.3 26
20:30 1007 29.74 837 24.72 1.8 35.3 68 -3.5 25.7
20:35 1007 29.74 837 24.72 1.8 35.3 67 -3.7 25.3
20:40 1007 29.74 837 24.72 1.9 35.4 65 -4 24.8
20:45 1007 29.74 837 24.72 2.2 35.9 64 -4 24.8
20:50 1007 29.74 837 24.72 2.5 36.5 64 -3.7 25.4
20:55 1007 29.74 837 24.72 2.6 36.7 58 -4.8 23.4
21:00 1007 29.74 837 24.72 3 37.4 57 -4.7 23.5
21:05 1007 29.74 837 24.72 3.1 37.6 58 -4.4 24
21:10 1007 29.74 837 24.72 3.1 37.6 58 -4.3 24.3
21:15 1007 29.74 837 24.72 2.7 36.9 65 -3.2 26.2
21:20 1007 29.74 836 24.69 1.9 35.4 69 -3.2 26.3
21:25 1007 29.74 836 24.69 1.3 34.4 70 -3.5 25.7
21:30 1007 29.74 836 24.69 1 33.9 71 -3.6 25.5
21:35 1007 29.74 836 24.69 1 33.8 73 -3.4 25.9
21:40 1007 29.74 836 24.69 0.9 33.6 74 -3.2 26.2
21:45 1007 29.74 836 24.69 0.6 33.2 75 -3.4 26
21:50 1007 29.74 836 24.69 0.6 33 75 -3.3 26
21:55 1007 29.74 836 24.69 0.4 32.8 77 -3.2 26.2
22:00 1007 29.74 836 24.69 0.3 32.6 78 -3.1 26.4
22:05 1007 29.74 836 24.69 0.1 32.3 78 -3.3 26.1
22:10 1007 29.74 836 24.69 0.1 32.1 78 -3.4 25.9
22:15 1007 29.74 836 24.69 0 32 76 -3.7 25.4
22:20 1007 29.74 836 24.69 0.1 32.1 75 -3.8 25.1
22:25 1007 29.74 836 24.69 0.1 32.2 74 -4.1 24.7
22:30 1007 29.74 836 24.69 0.2 32.4 73 -4.1 24.6
22:35 1007 29.74 836 24.69 0.2 32.4 73 -4.1 24.7
22:40 1006 29.71 836 24.69 0.2 32.3 73 -4.2 24.4
22:45 1007 29.74 836 24.69 0.1 32.2 73 -4.2 24.5
22:50 1006 29.71 836 24.69 0.1 32.1 73 -4.1 24.6
22:55 1006 29.71 836 24.69 0.1 32.2 72 -4.3 24.3
23:00 1006 29.71 836 24.69 0.1 32.2 72 -4.3 24.3
23:05 1006 29.71 836 24.69 0.1 32.3 73 -4.2 24.4
23:10 1006 29.71 835 24.66 0.2 32.3 72 -4.2 24.4
23:15 1006 29.71 835 24.66 0.1 32.2 72 -4.3 24.3
23:20 1006 29.71 835 24.66 0.1 32.2 72 -4.4 24.1
23:25 1006 29.71 835 24.66 0.2 32.3 72 -4.2 24.4
23:30 1006 29.71 835 24.66 0.2 32.3 72 -4.3 24.3
23:35 1006 29.71 835 24.66 0.2 32.4 71 -4.3 24.2
23:40 1006 29.71 835 24.66 0.3 32.6 71 -4.3 24.2
23:45 1006 29.71 835 24.66 0.2 32.4 72 -4.3 24.2
23:50 1006 29.71 835 24.66 0.2 32.4 72 -4.2 24.5
23:55 1006 29.71 835 24.66 0.2 32.4 72 -4.2 24.5
24:00 1005 29.68 835 24.66 0.2 32.3 72 -4.3 24.3